sensor_id;sensor_type;location;lat;lon;timestamp;temperature;humidity
15203;DHT22;7702;51.046;5.184;2023-06-14T00:01:24;19.60;97.50
15203;DHT22;7702;51.046;5.184;2023-06-14T00:03:50;19.60;97.90
15203;DHT22;7702;51.046;5.184;2023-06-14T00:06:16;19.50;98.30
15203;DHT22;7702;51.046;5.184;2023-06-14T00:08:42;19.40;99.00
15203;DHT22;7702;51.046;5.184;2023-06-14T00:11:08;19.40;99.60
15203;DHT22;7702;51.046;5.184;2023-06-14T00:13:34;19.40;99.40
15203;DHT22;7702;51.046;5.184;2023-06-14T00:16:00;19.30;99.80
15203;DHT22;7702;51.046;5.184;2023-06-14T00:18:26;19.30;99.90
15203;DHT22;7702;51.046;5.184;2023-06-14T00:20:55;19.30;99.90
15203;DHT22;7702;51.046;5.184;2023-06-14T00:23:21;19.20;99.90
15203;DHT22;7702;51.046;5.184;2023-06-14T00:25:47;19.20;99.90
15203;DHT22;7702;51.046;5.184;2023-06-14T00:28:13;19.20;99.90
15203;DHT22;7702;51.046;5.184;2023-06-14T00:30:39;19.20;99.90
15203;DHT22;7702;51.046;5.184;2023-06-14T00:33:05;19.20;99.90
15203;DHT22;7702;51.046;5.184;2023-06-14T00:35:31;19.10;99.90
15203;DHT22;7702;51.046;5.184;2023-06-14T00:37:56;19.10;99.90
15203;DHT22;7702;51.046;5.184;2023-06-14T00:40:22;19.00;99.90
15203;DHT22;7702;51.046;5.184;2023-06-14T00:42:48;19.00;99.90
15203;DHT22;7702;51.046;5.184;2023-06-14T00:45:14;18.90;99.90
15203;DHT22;7702;51.046;5.184;2023-06-14T00:47:41;18.90;99.90
15203;DHT22;7702;51.046;5.184;2023-06-14T00:50:07;18.80;99.90
15203;DHT22;7702;51.046;5.184;2023-06-14T00:52:34;18.80;99.90
15203;DHT22;7702;51.046;5.184;2023-06-14T00:55:00;18.70;99.90
15203;DHT22;7702;51.046;5.184;2023-06-14T00:57:27;18.80;99.90
15203;DHT22;7702;51.046;5.184;2023-06-14T00:59:53;18.70;99.90
15203;DHT22;7702;51.046;5.184;2023-06-14T01:02:19;18.70;99.90
15203;DHT22;7702;51.046;5.184;2023-06-14T01:04:47;18.70;99.90
15203;DHT22;7702;51.046;5.184;2023-06-14T01:12:42;18.60;99.90
15203;DHT22;7702;51.046;5.184;2023-06-14T01:15:10;18.50;99.90
15203;DHT22;7702;51.046;5.184;2023-06-14T01:17:38;18.50;99.90
15203;DHT22;7702;51.046;5.184;2023-06-14T01:20:11;18.50;99.90
15203;DHT22;7702;51.046;5.184;2023-06-14T01:22:51;18.40;99.90
15203;DHT22;7702;51.046;5.184;2023-06-14T01:25:18;18.40;99.90
15203;DHT22;7702;51.046;5.184;2023-06-14T01:27:49;18.40;99.90
15203;DHT22;7702;51.046;5.184;2023-06-14T01:30:17;18.30;99.90
15203;DHT22;7702;51.046;5.184;2023-06-14T01:32:44;18.30;99.90
15203;DHT22;7702;51.046;5.184;2023-06-14T01:35:10;18.30;99.90
15203;DHT22;7702;51.046;5.184;2023-06-14T01:37:36;18.30;99.90
15203;DHT22;7702;51.046;5.184;2023-06-14T01:40:04;18.20;99.90
15203;DHT22;7702;51.046;5.184;2023-06-14T01:42:34;18.10;99.90
15203;DHT22;7702;51.046;5.184;2023-06-14T01:45:02;18.10;99.90
15203;DHT22;7702;51.046;5.184;2023-06-14T01:47:29;18.10;99.90
15203;DHT22;7702;51.046;5.184;2023-06-14T01:49:55;18.10;99.90
15203;DHT22;7702;51.046;5.184;2023-06-14T01:52:21;18.10;99.90
15203;DHT22;7702;51.046;5.184;2023-06-14T01:54:52;18.00;99.90
15203;DHT22;7702;51.046;5.184;2023-06-14T01:57:18;18.00;99.90
15203;DHT22;7702;51.046;5.184;2023-06-14T01:59:43;17.90;99.90
15203;DHT22;7702;51.046;5.184;2023-06-14T02:02:14;17.90;99.90
15203;DHT22;7702;51.046;5.184;2023-06-14T02:04:41;17.80;99.90
15203;DHT22;7702;51.046;5.184;2023-06-14T02:07:06;17.80;99.90
15203;DHT22;7702;51.046;5.184;2023-06-14T02:09:33;17.70;99.90
15203;DHT22;7702;51.046;5.184;2023-06-14T02:11:59;17.60;99.90
15203;DHT22;7702;51.046;5.184;2023-06-14T02:14:25;17.60;99.90
15203;DHT22;7702;51.046;5.184;2023-06-14T02:16:51;17.50;99.90
15203;DHT22;7702;51.046;5.184;2023-06-14T02:19:19;17.50;99.90
15203;DHT22;7702;51.046;5.184;2023-06-14T02:21:46;17.60;99.90
15203;DHT22;7702;51.046;5.184;2023-06-14T02:24:12;17.50;99.90
15203;DHT22;7702;51.046;5.184;2023-06-14T02:26:38;17.50;99.90
15203;DHT22;7702;51.046;5.184;2023-06-14T02:29:04;17.50;99.90
15203;DHT22;7702;51.046;5.184;2023-06-14T02:31:31;17.40;99.90
15203;DHT22;7702;51.046;5.184;2023-06-14T02:33:57;17.30;99.90
15203;DHT22;7702;51.046;5.184;2023-06-14T02:36:22;17.20;99.90
15203;DHT22;7702;51.046;5.184;2023-06-14T02:38:48;17.20;99.90
15203;DHT22;7702;51.046;5.184;2023-06-14T02:41:14;17.20;99.90
15203;DHT22;7702;51.046;5.184;2023-06-14T02:43:40;17.20;99.90
15203;DHT22;7702;51.046;5.184;2023-06-14T02:46:05;17.20;99.90
15203;DHT22;7702;51.046;5.184;2023-06-14T02:48:32;17.10;99.90
15203;DHT22;7702;51.046;5.184;2023-06-14T02:50:58;17.10;99.90
15203;DHT22;7702;51.046;5.184;2023-06-14T02:53:23;17.10;99.90
15203;DHT22;7702;51.046;5.184;2023-06-14T02:55:49;17.00;99.90
15203;DHT22;7702;51.046;5.184;2023-06-14T02:58:15;17.00;99.90
15203;DHT22;7702;51.046;5.184;2023-06-14T03:00:42;16.90;99.90
15203;DHT22;7702;51.046;5.184;2023-06-14T03:03:08;16.80;99.90
15203;DHT22;7702;51.046;5.184;2023-06-14T03:05:44;16.70;99.90
15203;DHT22;7702;51.046;5.184;2023-06-14T03:08:15;16.60;99.90
15203;DHT22;7702;51.046;5.184;2023-06-14T03:10:48;16.60;99.90
15203;DHT22;7702;51.046;5.184;2023-06-14T03:13:14;16.70;99.90
15203;DHT22;7702;51.046;5.184;2023-06-14T03:15:42;16.60;99.90
15203;DHT22;7702;51.046;5.184;2023-06-14T03:18:08;16.60;99.90
15203;DHT22;7702;51.046;5.184;2023-06-14T03:20:38;16.60;99.90
15203;DHT22;7702;51.046;5.184;2023-06-14T03:23:04;16.60;99.90
15203;DHT22;7702;51.046;5.184;2023-06-14T03:25:31;16.50;99.90
15203;DHT22;7702;51.046;5.184;2023-06-14T03:27:57;16.50;99.90
15203;DHT22;7702;51.046;5.184;2023-06-14T03:30:23;16.50;99.90
15203;DHT22;7702;51.046;5.184;2023-06-14T03:32:49;16.50;99.90
15203;DHT22;7702;51.046;5.184;2023-06-14T03:35:17;16.40;99.90
15203;DHT22;7702;51.046;5.184;2023-06-14T03:37:46;16.50;99.90
15203;DHT22;7702;51.046;5.184;2023-06-14T03:40:13;16.60;99.90
15203;DHT22;7702;51.046;5.184;2023-06-14T03:42:40;16.60;99.90
15203;DHT22;7702;51.046;5.184;2023-06-14T03:45:06;16.50;99.90
15203;DHT22;7702;51.046;5.184;2023-06-14T03:47:32;16.50;99.90
15203;DHT22;7702;51.046;5.184;2023-06-14T03:49:58;16.60;99.90
15203;DHT22;7702;51.046;5.184;2023-06-14T03:52:24;16.60;99.90
15203;DHT22;7702;51.046;5.184;2023-06-14T03:54:50;16.60;99.90
15203;DHT22;7702;51.046;5.184;2023-06-14T03:57:16;16.60;99.90
15203;DHT22;7702;51.046;5.184;2023-06-14T03:59:42;16.70;99.90
15203;DHT22;7702;51.046;5.184;2023-06-14T04:02:08;16.70;99.90
15203;DHT22;7702;51.046;5.184;2023-06-14T04:04:35;16.70;99.90
15203;DHT22;7702;51.046;5.184;2023-06-14T04:07:01;16.70;99.90
15203;DHT22;7702;51.046;5.184;2023-06-14T04:09:29;16.80;99.90
15203;DHT22;7702;51.046;5.184;2023-06-14T04:11:56;16.80;99.90
15203;DHT22;7702;51.046;5.184;2023-06-14T04:14:22;16.90;99.90
15203;DHT22;7702;51.046;5.184;2023-06-14T04:16:48;16.90;99.90
15203;DHT22;7702;51.046;5.184;2023-06-14T04:19:15;16.90;99.90
15203;DHT22;7702;51.046;5.184;2023-06-14T04:21:41;17.00;99.90
15203;DHT22;7702;51.046;5.184;2023-06-14T04:24:08;17.10;99.90
15203;DHT22;7702;51.046;5.184;2023-06-14T04:26:41;17.10;99.90
15203;DHT22;7702;51.046;5.184;2023-06-14T04:29:12;17.10;99.90
15203;DHT22;7702;51.046;5.184;2023-06-14T04:31:43;17.10;99.90
15203;DHT22;7702;51.046;5.184;2023-06-14T04:34:10;17.20;99.90
15203;DHT22;7702;51.046;5.184;2023-06-14T04:36:41;17.30;99.90
15203;DHT22;7702;51.046;5.184;2023-06-14T04:39:17;17.30;99.90
15203;DHT22;7702;51.046;5.184;2023-06-14T04:41:44;17.40;99.90
15203;DHT22;7702;51.046;5.184;2023-06-14T04:44:10;17.40;99.90
15203;DHT22;7702;51.046;5.184;2023-06-14T04:46:36;17.40;99.90
15203;DHT22;7702;51.046;5.184;2023-06-14T04:49:15;17.50;99.90
15203;DHT22;7702;51.046;5.184;2023-06-14T04:51:42;17.60;99.90
15203;DHT22;7702;51.046;5.184;2023-06-14T04:54:08;17.60;99.90
15203;DHT22;7702;51.046;5.184;2023-06-14T04:56:44;17.70;99.90
15203;DHT22;7702;51.046;5.184;2023-06-14T04:59:11;17.80;99.90
15203;DHT22;7702;51.046;5.184;2023-06-14T05:01:38;17.90;99.90
15203;DHT22;7702;51.046;5.184;2023-06-14T05:04:04;18.00;99.90
15203;DHT22;7702;51.046;5.184;2023-06-14T05:06:30;18.10;99.90
15203;DHT22;7702;51.046;5.184;2023-06-14T05:08:56;18.20;99.90
15203;DHT22;7702;51.046;5.184;2023-06-14T05:11:22;18.30;99.90
15203;DHT22;7702;51.046;5.184;2023-06-14T05:13:52;18.30;99.90
15203;DHT22;7702;51.046;5.184;2023-06-14T05:16:18;18.40;99.90
15203;DHT22;7702;51.046;5.184;2023-06-14T05:18:45;18.50;99.90
15203;DHT22;7702;51.046;5.184;2023-06-14T05:21:12;18.60;99.90
15203;DHT22;7702;51.046;5.184;2023-06-14T05:23:38;18.70;99.90
15203;DHT22;7702;51.046;5.184;2023-06-14T05:26:04;18.80;99.90
15203;DHT22;7702;51.046;5.184;2023-06-14T05:28:30;18.90;99.90
15203;DHT22;7702;51.046;5.184;2023-06-14T05:30:56;19.10;99.90
15203;DHT22;7702;51.046;5.184;2023-06-14T05:33:23;19.20;99.90
15203;DHT22;7702;51.046;5.184;2023-06-14T05:35:49;19.30;99.90
15203;DHT22;7702;51.046;5.184;2023-06-14T05:38:14;19.40;99.90
15203;DHT22;7702;51.046;5.184;2023-06-14T05:40:40;19.50;99.90
15203;DHT22;7702;51.046;5.184;2023-06-14T05:43:06;19.60;99.90
15203;DHT22;7702;51.046;5.184;2023-06-14T05:45:31;19.70;99.90
15203;DHT22;7702;51.046;5.184;2023-06-14T05:47:57;19.80;99.90
15203;DHT22;7702;51.046;5.184;2023-06-14T05:50:23;19.80;99.90
15203;DHT22;7702;51.046;5.184;2023-06-14T05:52:48;19.80;99.90
15203;DHT22;7702;51.046;5.184;2023-06-14T05:55:16;19.90;99.90
15203;DHT22;7702;51.046;5.184;2023-06-14T05:57:42;20.10;99.90
15203;DHT22;7702;51.046;5.184;2023-06-14T06:00:08;20.30;99.90
15203;DHT22;7702;51.046;5.184;2023-06-14T06:02:42;20.40;99.90
15203;DHT22;7702;51.046;5.184;2023-06-14T06:05:09;20.30;99.90
15203;DHT22;7702;51.046;5.184;2023-06-14T06:07:36;20.40;99.90
15203;DHT22;7702;51.046;5.184;2023-06-14T06:10:03;20.40;99.90
15203;DHT22;7702;51.046;5.184;2023-06-14T06:12:29;20.50;99.90
15203;DHT22;7702;51.046;5.184;2023-06-14T06:14:54;20.60;99.90
15203;DHT22;7702;51.046;5.184;2023-06-14T06:17:20;20.90;99.90
15203;DHT22;7702;51.046;5.184;2023-06-14T06:19:46;21.10;99.90
15203;DHT22;7702;51.046;5.184;2023-06-14T06:22:12;21.20;99.90
15203;DHT22;7702;51.046;5.184;2023-06-14T06:24:38;21.30;99.90
15203;DHT22;7702;51.046;5.184;2023-06-14T06:27:04;21.50;99.90
15203;DHT22;7702;51.046;5.184;2023-06-14T06:29:29;21.60;99.90
15203;DHT22;7702;51.046;5.184;2023-06-14T06:31:55;21.70;99.90
15203;DHT22;7702;51.046;5.184;2023-06-14T06:34:22;21.80;99.90
15203;DHT22;7702;51.046;5.184;2023-06-14T06:36:47;21.70;99.90
15203;DHT22;7702;51.046;5.184;2023-06-14T06:39:13;21.80;99.90
15203;DHT22;7702;51.046;5.184;2023-06-14T06:41:40;21.90;99.90
15203;DHT22;7702;51.046;5.184;2023-06-14T06:44:06;22.10;99.90
15203;DHT22;7702;51.046;5.184;2023-06-14T06:46:33;22.30;99.90
15203;DHT22;7702;51.046;5.184;2023-06-14T06:48:59;22.50;99.90
15203;DHT22;7702;51.046;5.184;2023-06-14T06:51:25;22.60;99.90
15203;DHT22;7702;51.046;5.184;2023-06-14T06:53:55;22.50;99.90
15203;DHT22;7702;51.046;5.184;2023-06-14T06:56:21;22.60;99.90
15203;DHT22;7702;51.046;5.184;2023-06-14T06:58:49;22.70;99.90
15203;DHT22;7702;51.046;5.184;2023-06-14T07:01:15;22.70;99.90
15203;DHT22;7702;51.046;5.184;2023-06-14T07:03:41;22.80;99.90
15203;DHT22;7702;51.046;5.184;2023-06-14T07:06:07;22.90;99.90
15203;DHT22;7702;51.046;5.184;2023-06-14T07:08:32;23.10;99.90
15203;DHT22;7702;51.046;5.184;2023-06-14T07:10:58;23.30;99.90
15203;DHT22;7702;51.046;5.184;2023-06-14T07:13:23;23.40;99.90
15203;DHT22;7702;51.046;5.184;2023-06-14T07:15:49;23.50;99.90
15203;DHT22;7702;51.046;5.184;2023-06-14T07:18:15;23.60;99.90
15203;DHT22;7702;51.046;5.184;2023-06-14T07:20:41;23.60;99.90
15203;DHT22;7702;51.046;5.184;2023-06-14T07:23:08;23.70;99.90
15203;DHT22;7702;51.046;5.184;2023-06-14T07:25:34;23.60;99.90
15203;DHT22;7702;51.046;5.184;2023-06-14T07:27:59;23.70;99.90
15203;DHT22;7702;51.046;5.184;2023-06-14T07:30:26;24.10;99.90
15203;DHT22;7702;51.046;5.184;2023-06-14T07:32:54;24.40;99.90
15203;DHT22;7702;51.046;5.184;2023-06-14T07:35:20;24.40;98.40
15203;DHT22;7702;51.046;5.184;2023-06-14T07:37:46;24.50;98.30
15203;DHT22;7702;51.046;5.184;2023-06-14T07:40:13;24.60;97.90
15203;DHT22;7702;51.046;5.184;2023-06-14T07:42:39;24.80;96.50
15203;DHT22;7702;51.046;5.184;2023-06-14T07:45:05;24.80;95.80
15203;DHT22;7702;51.046;5.184;2023-06-14T07:47:32;24.90;95.20
15203;DHT22;7702;51.046;5.184;2023-06-14T07:49:58;25.00;94.90
15203;DHT22;7702;51.046;5.184;2023-06-14T07:52:23;25.20;93.10
15203;DHT22;7702;51.046;5.184;2023-06-14T07:54:49;25.40;92.40
15203;DHT22;7702;51.046;5.184;2023-06-14T07:57:15;25.30;93.70
15203;DHT22;7702;51.046;5.184;2023-06-14T07:59:40;25.40;93.30
15203;DHT22;7702;51.046;5.184;2023-06-14T08:02:06;25.60;92.50
15203;DHT22;7702;51.046;5.184;2023-06-14T08:04:32;25.60;91.30
15203;DHT22;7702;51.046;5.184;2023-06-14T08:06:59;25.50;91.10
15203;DHT22;7702;51.046;5.184;2023-06-14T08:09:25;25.60;90.90
15203;DHT22;7702;51.046;5.184;2023-06-14T08:11:51;25.80;90.90
15203;DHT22;7702;51.046;5.184;2023-06-14T08:14:17;26.10;89.30
15203;DHT22;7702;51.046;5.184;2023-06-14T08:16:42;26.20;88.50
15203;DHT22;7702;51.046;5.184;2023-06-14T08:19:08;26.20;88.50
15203;DHT22;7702;51.046;5.184;2023-06-14T08:21:34;26.20;90.60
15203;DHT22;7702;51.046;5.184;2023-06-14T08:24:02;26.40;87.50
15203;DHT22;7702;51.046;5.184;2023-06-14T08:26:27;26.50;85.60
15203;DHT22;7702;51.046;5.184;2023-06-14T08:28:57;26.70;86.20
15203;DHT22;7702;51.046;5.184;2023-06-14T08:31:23;27.00;79.60
15203;DHT22;7702;51.046;5.184;2023-06-14T08:33:50;26.80;79.30
15203;DHT22;7702;51.046;5.184;2023-06-14T08:36:16;26.70;78.30
15203;DHT22;7702;51.046;5.184;2023-06-14T08:38:42;26.70;80.10
15203;DHT22;7702;51.046;5.184;2023-06-14T08:41:12;26.70;77.60
15203;DHT22;7702;51.046;5.184;2023-06-14T08:43:39;26.90;78.90
15203;DHT22;7702;51.046;5.184;2023-06-14T08:46:06;27.20;75.90
15203;DHT22;7702;51.046;5.184;2023-06-14T08:48:35;27.10;77.70
15203;DHT22;7702;51.046;5.184;2023-06-14T08:51:02;27.30;76.50
15203;DHT22;7702;51.046;5.184;2023-06-14T08:53:31;27.00;77.50
15203;DHT22;7702;51.046;5.184;2023-06-14T08:55:58;27.10;77.50
15203;DHT22;7702;51.046;5.184;2023-06-14T08:58:28;27.30;72.40
15203;DHT22;7702;51.046;5.184;2023-06-14T09:00:57;27.30;74.70
15203;DHT22;7702;51.046;5.184;2023-06-14T09:03:24;27.50;72.60
15203;DHT22;7702;51.046;5.184;2023-06-14T09:05:57;27.40;71.30
15203;DHT22;7702;51.046;5.184;2023-06-14T09:08:27;27.40;71.90
15203;DHT22;7702;51.046;5.184;2023-06-14T09:10:56;27.90;68.50
15203;DHT22;7702;51.046;5.184;2023-06-14T09:13:22;27.80;68.40
15203;DHT22;7702;51.046;5.184;2023-06-14T09:15:49;28.00;68.60
15203;DHT22;7702;51.046;5.184;2023-06-14T09:18:15;28.00;66.30
15203;DHT22;7702;51.046;5.184;2023-06-14T09:20:41;28.20;64.00
15203;DHT22;7702;51.046;5.184;2023-06-14T09:23:07;28.30;63.60
15203;DHT22;7702;51.046;5.184;2023-06-14T09:25:41;28.40;63.20
15203;DHT22;7702;51.046;5.184;2023-06-14T09:28:07;28.20;64.00
15203;DHT22;7702;51.046;5.184;2023-06-14T09:30:36;28.10;65.10
15203;DHT22;7702;51.046;5.184;2023-06-14T09:33:02;28.40;64.20
15203;DHT22;7702;51.046;5.184;2023-06-14T09:35:28;28.50;64.90
15203;DHT22;7702;51.046;5.184;2023-06-14T09:37:56;28.70;63.30
15203;DHT22;7702;51.046;5.184;2023-06-14T09:40:22;28.90;62.10
15203;DHT22;7702;51.046;5.184;2023-06-14T09:42:48;29.00;61.40
15203;DHT22;7702;51.046;5.184;2023-06-14T09:45:15;28.90;60.00
15203;DHT22;7702;51.046;5.184;2023-06-14T09:47:49;29.20;60.80
15203;DHT22;7702;51.046;5.184;2023-06-14T09:50:14;29.30;59.90
15203;DHT22;7702;51.046;5.184;2023-06-14T09:52:43;29.10;60.40
15203;DHT22;7702;51.046;5.184;2023-06-14T09:55:13;29.40;60.40
15203;DHT22;7702;51.046;5.184;2023-06-14T09:57:41;29.70;57.50
15203;DHT22;7702;51.046;5.184;2023-06-14T10:00:09;29.50;58.80
15203;DHT22;7702;51.046;5.184;2023-06-14T10:02:37;29.30;57.20
15203;DHT22;7702;51.046;5.184;2023-06-14T10:05:05;29.20;56.00
15203;DHT22;7702;51.046;5.184;2023-06-14T10:07:37;29.40;57.70
15203;DHT22;7702;51.046;5.184;2023-06-14T10:10:06;29.90;56.10
15203;DHT22;7702;51.046;5.184;2023-06-14T10:12:32;29.70;56.90
15203;DHT22;7702;51.046;5.184;2023-06-14T10:14:58;29.70;56.10
15203;DHT22;7702;51.046;5.184;2023-06-14T10:22:50;29.60;54.10
15203;DHT22;7702;51.046;5.184;2023-06-14T10:25:29;30.10;53.50
15203;DHT22;7702;51.046;5.184;2023-06-14T10:28:15;30.30;54.50
15203;DHT22;7702;51.046;5.184;2023-06-14T10:31:10;30.40;52.30
15203;DHT22;7702;51.046;5.184;2023-06-14T10:33:40;30.10;53.80
15203;DHT22;7702;51.046;5.184;2023-06-14T10:39:08;31.00;51.50
15203;DHT22;7702;51.046;5.184;2023-06-14T10:41:37;31.70;51.20
15203;DHT22;7702;51.046;5.184;2023-06-14T10:49:17;31.40;51.40
15203;DHT22;7702;51.046;5.184;2023-06-14T10:51:51;31.30;50.50
15203;DHT22;7702;51.046;5.184;2023-06-14T10:54:18;31.10;50.90
15203;DHT22;7702;51.046;5.184;2023-06-14T10:56:52;31.00;50.70
15203;DHT22;7702;51.046;5.184;2023-06-14T10:59:19;31.00;49.80
15203;DHT22;7702;51.046;5.184;2023-06-14T11:04:53;30.80;50.50
15203;DHT22;7702;51.046;5.184;2023-06-14T11:12:48;31.10;50.00
15203;DHT22;7702;51.046;5.184;2023-06-14T11:15:14;31.20;48.90
15203;DHT22;7702;51.046;5.184;2023-06-14T11:17:50;30.90;47.30
15203;DHT22;7702;51.046;5.184;2023-06-14T11:20:17;31.00;45.20
15203;DHT22;7702;51.046;5.184;2023-06-14T11:22:43;30.90;45.20
15203;DHT22;7702;51.046;5.184;2023-06-14T11:25:10;31.00;48.80
15203;DHT22;7702;51.046;5.184;2023-06-14T11:27:35;31.40;46.00
15203;DHT22;7702;51.046;5.184;2023-06-14T11:30:02;31.40;45.60
15203;DHT22;7702;51.046;5.184;2023-06-14T11:32:28;31.40;45.20
15203;DHT22;7702;51.046;5.184;2023-06-14T11:34:53;31.30;46.00
15203;DHT22;7702;51.046;5.184;2023-06-14T11:37:19;31.20;44.60
15203;DHT22;7702;51.046;5.184;2023-06-14T11:39:45;31.10;45.50
15203;DHT22;7702;51.046;5.184;2023-06-14T11:42:17;31.40;47.40
15203;DHT22;7702;51.046;5.184;2023-06-14T11:44:46;31.30;47.10
15203;DHT22;7702;51.046;5.184;2023-06-14T11:47:12;31.40;49.10
15203;DHT22;7702;51.046;5.184;2023-06-14T11:49:38;31.50;48.60
15203;DHT22;7702;51.046;5.184;2023-06-14T11:52:04;31.40;47.60
15203;DHT22;7702;51.046;5.184;2023-06-14T11:54:32;31.60;49.30
15203;DHT22;7702;51.046;5.184;2023-06-14T11:56:58;31.90;47.80
15203;DHT22;7702;51.046;5.184;2023-06-14T11:59:25;32.10;48.30
15203;DHT22;7702;51.046;5.184;2023-06-14T12:01:53;31.80;47.20
15203;DHT22;7702;51.046;5.184;2023-06-14T12:04:26;31.50;48.40
15203;DHT22;7702;51.046;5.184;2023-06-14T12:06:52;31.70;48.80
15203;DHT22;7702;51.046;5.184;2023-06-14T12:09:19;31.40;48.20
15203;DHT22;7702;51.046;5.184;2023-06-14T12:11:45;31.50;49.60
15203;DHT22;7702;51.046;5.184;2023-06-14T12:14:11;32.20;47.50
15203;DHT22;7702;51.046;5.184;2023-06-14T12:16:40;32.50;47.10
15203;DHT22;7702;51.046;5.184;2023-06-14T12:19:11;32.30;48.10
15203;DHT22;7702;51.046;5.184;2023-06-14T12:21:39;32.40;47.70
15203;DHT22;7702;51.046;5.184;2023-06-14T12:24:07;32.20;47.40
15203;DHT22;7702;51.046;5.184;2023-06-14T12:26:37;32.10;50.00
15203;DHT22;7702;51.046;5.184;2023-06-14T12:29:05;32.80;50.70
15203;DHT22;7702;51.046;5.184;2023-06-14T12:31:32;33.40;49.10
15203;DHT22;7702;51.046;5.184;2023-06-14T12:33:57;33.20;49.40
15203;DHT22;7702;51.046;5.184;2023-06-14T12:36:23;32.60;49.60
15203;DHT22;7702;51.046;5.184;2023-06-14T12:38:49;32.20;49.60
15203;DHT22;7702;51.046;5.184;2023-06-14T12:41:19;32.20;49.20
15203;DHT22;7702;51.046;5.184;2023-06-14T12:43:47;32.00;49.70
15203;DHT22;7702;51.046;5.184;2023-06-14T12:46:12;32.20;49.10
15203;DHT22;7702;51.046;5.184;2023-06-14T12:48:38;32.40;49.30
15203;DHT22;7702;51.046;5.184;2023-06-14T12:51:04;32.20;49.70
15203;DHT22;7702;51.046;5.184;2023-06-14T12:53:30;32.20;49.50
15203;DHT22;7702;51.046;5.184;2023-06-14T12:55:56;32.30;48.50
15203;DHT22;7702;51.046;5.184;2023-06-14T12:58:21;32.90;47.80
15203;DHT22;7702;51.046;5.184;2023-06-14T13:00:49;33.10;47.20
15203;DHT22;7702;51.046;5.184;2023-06-14T13:03:15;33.10;47.30
15203;DHT22;7702;51.046;5.184;2023-06-14T13:05:41;33.10;48.80
15203;DHT22;7702;51.046;5.184;2023-06-14T13:08:08;33.30;47.70
15203;DHT22;7702;51.046;5.184;2023-06-14T13:10:34;33.40;48.70
15203;DHT22;7702;51.046;5.184;2023-06-14T13:13:00;33.50;47.90
15203;DHT22;7702;51.046;5.184;2023-06-14T13:15:26;33.10;47.80
15203;DHT22;7702;51.046;5.184;2023-06-14T13:17:53;33.00;47.70
15203;DHT22;7702;51.046;5.184;2023-06-14T13:20:18;32.40;48.40
15203;DHT22;7702;51.046;5.184;2023-06-14T13:22:44;32.40;48.60
15203;DHT22;7702;51.046;5.184;2023-06-14T13:25:10;32.30;48.70
15203;DHT22;7702;51.046;5.184;2023-06-14T13:27:35;32.60;48.30
15203;DHT22;7702;51.046;5.184;2023-06-14T13:30:02;33.00;49.30
15203;DHT22;7702;51.046;5.184;2023-06-14T13:32:28;33.00;49.20
15203;DHT22;7702;51.046;5.184;2023-06-14T13:34:54;33.30;50.20
15203;DHT22;7702;51.046;5.184;2023-06-14T13:37:20;33.50;49.20
15203;DHT22;7702;51.046;5.184;2023-06-14T13:39:45;33.20;48.70
15203;DHT22;7702;51.046;5.184;2023-06-14T13:42:11;32.80;48.20
15203;DHT22;7702;51.046;5.184;2023-06-14T13:44:37;32.60;47.70
15203;DHT22;7702;51.046;5.184;2023-06-14T13:47:03;32.40;48.80
15203;DHT22;7702;51.046;5.184;2023-06-14T13:49:29;31.60;48.90
15203;DHT22;7702;51.046;5.184;2023-06-14T13:51:54;31.60;48.00
15203;DHT22;7702;51.046;5.184;2023-06-14T13:54:20;31.50;47.20
15203;DHT22;7702;51.046;5.184;2023-06-14T13:56:47;31.70;46.90
15203;DHT22;7702;51.046;5.184;2023-06-14T13:59:13;31.80;47.90
15203;DHT22;7702;51.046;5.184;2023-06-14T14:01:39;32.30;46.90
15203;DHT22;7702;51.046;5.184;2023-06-14T14:04:04;32.20;47.00
15203;DHT22;7702;51.046;5.184;2023-06-14T14:06:30;32.30;47.60
15203;DHT22;7702;51.046;5.184;2023-06-14T14:08:57;32.80;49.10
15203;DHT22;7702;51.046;5.184;2023-06-14T14:11:22;32.90;43.50
15203;DHT22;7702;51.046;5.184;2023-06-14T14:13:48;32.50;43.20
15203;DHT22;7702;51.046;5.184;2023-06-14T14:16:15;32.20;44.20
15203;DHT22;7702;51.046;5.184;2023-06-14T14:18:41;32.10;42.70
15203;DHT22;7702;51.046;5.184;2023-06-14T14:21:07;32.30;43.80
15203;DHT22;7702;51.046;5.184;2023-06-14T14:23:32;32.50;44.00
15203;DHT22;7702;51.046;5.184;2023-06-14T14:25:58;32.80;43.90
15203;DHT22;7702;51.046;5.184;2023-06-14T14:28:26;33.10;42.20
15203;DHT22;7702;51.046;5.184;2023-06-14T14:30:52;33.00;42.30
15203;DHT22;7702;51.046;5.184;2023-06-14T14:33:19;33.00;42.80
15203;DHT22;7702;51.046;5.184;2023-06-14T14:35:45;32.60;42.80
15203;DHT22;7702;51.046;5.184;2023-06-14T14:38:16;33.00;43.20
15203;DHT22;7702;51.046;5.184;2023-06-14T14:40:43;32.80;43.70
15203;DHT22;7702;51.046;5.184;2023-06-14T14:43:09;33.40;43.00
15203;DHT22;7702;51.046;5.184;2023-06-14T14:45:35;33.90;43.60
15203;DHT22;7702;51.046;5.184;2023-06-14T14:48:01;34.00;43.20
15203;DHT22;7702;51.046;5.184;2023-06-14T14:50:28;34.30;43.00
15203;DHT22;7702;51.046;5.184;2023-06-14T14:52:55;33.80;44.50
15203;DHT22;7702;51.046;5.184;2023-06-14T14:55:20;33.50;43.40
15203;DHT22;7702;51.046;5.184;2023-06-14T14:57:46;33.50;43.00
15203;DHT22;7702;51.046;5.184;2023-06-14T15:00:13;33.00;43.20
15203;DHT22;7702;51.046;5.184;2023-06-14T15:02:39;32.20;44.10
15203;DHT22;7702;51.046;5.184;2023-06-14T15:05:05;32.60;46.60
15203;DHT22;7702;51.046;5.184;2023-06-14T15:07:31;32.60;45.20
15203;DHT22;7702;51.046;5.184;2023-06-14T15:09:59;32.60;44.10
15203;DHT22;7702;51.046;5.184;2023-06-14T15:12:25;33.10;43.10
15203;DHT22;7702;51.046;5.184;2023-06-14T15:14:51;33.10;43.60
15203;DHT22;7702;51.046;5.184;2023-06-14T15:17:20;33.10;44.20
15203;DHT22;7702;51.046;5.184;2023-06-14T15:19:47;33.20;43.20
15203;DHT22;7702;51.046;5.184;2023-06-14T15:22:14;33.10;43.70
15203;DHT22;7702;51.046;5.184;2023-06-14T15:24:43;33.40;43.90
15203;DHT22;7702;51.046;5.184;2023-06-14T15:27:09;33.40;45.10
15203;DHT22;7702;51.046;5.184;2023-06-14T15:29:37;33.50;44.20
15203;DHT22;7702;51.046;5.184;2023-06-14T15:32:02;33.20;45.70
15203;DHT22;7702;51.046;5.184;2023-06-14T15:34:28;33.10;45.30
15203;DHT22;7702;51.046;5.184;2023-06-14T15:36:54;33.30;49.70
15203;DHT22;7702;51.046;5.184;2023-06-14T15:39:20;33.10;49.60
15203;DHT22;7702;51.046;5.184;2023-06-14T15:41:47;33.10;46.00
15203;DHT22;7702;51.046;5.184;2023-06-14T15:44:12;33.00;45.40
15203;DHT22;7702;51.046;5.184;2023-06-14T15:46:38;32.80;48.20
15203;DHT22;7702;51.046;5.184;2023-06-14T15:49:13;33.00;48.00
15203;DHT22;7702;51.046;5.184;2023-06-14T15:51:39;33.50;48.40
15203;DHT22;7702;51.046;5.184;2023-06-14T15:54:05;34.10;49.80
15203;DHT22;7702;51.046;5.184;2023-06-14T15:56:31;33.70;50.40
15203;DHT22;7702;51.046;5.184;2023-06-14T15:58:57;33.20;49.70
15203;DHT22;7702;51.046;5.184;2023-06-14T16:01:23;33.10;50.10
15203;DHT22;7702;51.046;5.184;2023-06-14T16:03:50;32.90;49.60
15203;DHT22;7702;51.046;5.184;2023-06-14T16:06:16;33.00;48.30
15203;DHT22;7702;51.046;5.184;2023-06-14T16:08:44;32.40;47.50
15203;DHT22;7702;51.046;5.184;2023-06-14T16:11:10;32.30;49.60